Magnus Heinason — OW2252 — position and weather

sailwx.info

Track history (hours):
 
Tides and Currents Weather Stations Pressure Air Temp Water Temp Dewpoint Dewpoint Depression Visibility Wind Speed Wind Dir Waves Ship Positions

Oceanographic research ship Magnus Heinason (Faroe Islands)

Detailed information on ship capabilities available from ARCUS's ALIAS (Arctic Logistics Information and Support) project.

Last reported at 2019-Aug-23 16:03 UTC. Time now 2019-Aug-24 22:59 UTC.
Position N 62°06' W 007°04'.

Length 44 m; draft 4 m.

Type: . MMSI: 231041000.

Date/timePositionNaut miles runAvg speedWind from/ knotsBaromVisibWave heightAir tempDewpointWater temp
2019-Aug-23 16:03N 62°06' W 007°04'1 8.3
2019-Aug-23 15:54N 62°05' W 007°02'3 8.1
2019-Aug-23 15:30N 62°02' W 006°60'4 7.1
2019-Aug-23 15:01N 61°60' W 006°55'3 6.7
2019-Aug-23 14:31N 61°57' W 006°50'3 5.7
2019-Aug-23 14:00N 61°56' W 006°44'2 0.3
2019-Aug-23 06:29N 61°59' W 006°43'2 2.4
2019-Aug-23 05:36N 61°57' W 006°44'0 4.4
2019-Aug-23 05:31N 61°56' W 006°44'3 5.3
2019-Aug-23 05:00N 61°55' W 006°49'3 6.7
2019-Aug-23 04:31N 61°56' W 006°56'4 7.4
2019-Aug-23 04:01N 61°56' W 007°04'4 8.1
2019-Aug-23 03:28N 61°55' W 007°13'  
2019-Aug-17 23:59N 61°55' W 007°25'4 6.2
2019-Aug-17 23:21N 61°56' W 007°17'2 6.6
2019-Aug-17 23:00N 61°57' W 007°12'3 3.9
2019-Aug-17 22:19N 61°55' W 007°17'1 1.6
2019-Aug-17 21:38N 61°55' W 007°19'0 3.5
2019-Aug-17 21:30N 61°54' W 007°19'22 0.5
2019-Aug-15 21:36N 61°52' W 006°33'110.6
2019-Aug-15 21:30N 61°52' W 006°34'5 9.8
2019-Aug-15 21:01N 61°56' W 006°40'3 0.1
2019-Aug-14 05:30N 61°59' W 006°44'2 3.8
2019-Aug-14 05:01N 61°57' W 006°42'4 7.7
2019-Aug-14 04:31N 61°55' W 006°49'3 6.9
2019-Aug-14 04:01N 61°56' W 006°56'3 6.0
2019-Aug-14 03:30N 61°56' W 007°02'2 4.3
2019-Aug-14 03:01N 61°56' W 007°07'2 4.1
2019-Aug-14 02:25N 61°56' W 007°12'  
Track history (hours):
 
Tides and Currents Weather Stations Pressure Air Temp Water Temp Dewpoint Dewpoint Depression Visibility Wind Speed Wind Dir Waves Ship Positions

Oceanographic research ship Magnus Heinason (Faroe Islands)

Detailed information on ship capabilities available from ARCUS's ALIAS (Arctic Logistics Information and Support) project.

Last reported at 2019-Aug-23 16:03 UTC. Time now 2019-Aug-24 22:59 UTC.
Position N 62°06' W 007°04'.

Length 44 m; draft 4 m.

Type: . MMSI: 231041000.

Date/timePositionNaut miles runAvg speedWind from/ knotsBaromVisibWave heightAir tempDewpointWater temp
2019-Aug-23 16:03N 62°06' W 007°04'1 8.3
2019-Aug-23 15:54N 62°05' W 007°02'3 8.1
2019-Aug-23 15:30N 62°02' W 006°60'4 7.1
2019-Aug-23 15:01N 61°60' W 006°55'3 6.7
2019-Aug-23 14:31N 61°57' W 006°50'3 5.7
2019-Aug-23 14:00N 61°56' W 006°44'2 0.3
2019-Aug-23 06:29N 61°59' W 006°43'2 2.4
2019-Aug-23 05:36N 61°57' W 006°44'0 4.4
2019-Aug-23 05:31N 61°56' W 006°44'3 5.3
2019-Aug-23 05:00N 61°55' W 006°49'3 6.7
2019-Aug-23 04:31N 61°56' W 006°56'4 7.4
2019-Aug-23 04:01N 61°56' W 007°04'4 8.1
2019-Aug-23 03:28N 61°55' W 007°13'  
2019-Aug-17 23:59N 61°55' W 007°25'4 6.2
2019-Aug-17 23:21N 61°56' W 007°17'2 6.6
2019-Aug-17 23:00N 61°57' W 007°12'3 3.9
2019-Aug-17 22:19N 61°55' W 007°17'1 1.6
2019-Aug-17 21:38N 61°55' W 007°19'0 3.5
2019-Aug-17 21:30N 61°54' W 007°19'22 0.5
2019-Aug-15 21:36N 61°52' W 006°33'110.6
2019-Aug-15 21:30N 61°52' W 006°34'5 9.8
2019-Aug-15 21:01N 61°56' W 006°40'3 0.1
2019-Aug-14 05:30N 61°59' W 006°44'2 3.8
2019-Aug-14 05:01N 61°57' W 006°42'4 7.7
2019-Aug-14 04:31N 61°55' W 006°49'3 6.9
2019-Aug-14 04:01N 61°56' W 006°56'3 6.0
2019-Aug-14 03:30N 61°56' W 007°02'2 4.3
2019-Aug-14 03:01N 61°56' W 007°07'2 4.1
2019-Aug-14 02:25N 61°56' W 007°12'  

Dump ship's entire track history